sensor_id;sensor_type;location;lat;lon;timestamp;P1;durP1;ratioP1;P2;durP2;ratioP2
64188;SDS011;50493;50.970;10.082;2023-02-13T00:02:07;7.80;;;4.20;;
64188;SDS011;50493;50.970;10.082;2023-02-13T00:04:32;7.95;;;4.45;;
64188;SDS011;50493;50.970;10.082;2023-02-13T00:07:00;6.88;;;3.75;;
64188;SDS011;50493;50.970;10.082;2023-02-13T00:09:25;8.68;;;4.60;;
64188;SDS011;50493;50.970;10.082;2023-02-13T00:11:51;5.93;;;3.40;;
64188;SDS011;50493;50.970;10.082;2023-02-13T00:14:16;7.30;;;4.05;;
64188;SDS011;50493;50.970;10.082;2023-02-13T00:16:42;7.85;;;3.72;;
64188;SDS011;50493;50.970;10.082;2023-02-13T00:19:07;6.18;;;3.40;;
64188;SDS011;50493;50.970;10.082;2023-02-13T00:21:32;6.65;;;3.65;;
64188;SDS011;50493;50.970;10.082;2023-02-13T00:23:59;7.72;;;3.83;;
64188;SDS011;50493;50.970;10.082;2023-02-13T00:26:24;7.70;;;4.20;;
64188;SDS011;50493;50.970;10.082;2023-02-13T00:28:50;7.68;;;3.63;;
64188;SDS011;50493;50.970;10.082;2023-02-13T00:31:16;6.93;;;3.90;;
64188;SDS011;50493;50.970;10.082;2023-02-13T00:33:44;6.55;;;3.63;;
64188;SDS011;50493;50.970;10.082;2023-02-13T00:36:10;8.20;;;3.88;;
64188;SDS011;50493;50.970;10.082;2023-02-13T00:38:37;8.75;;;4.00;;
64188;SDS011;50493;50.970;10.082;2023-02-13T00:41:04;8.13;;;4.22;;
64188;SDS011;50493;50.970;10.082;2023-02-13T00:43:30;7.40;;;4.18;;
64188;SDS011;50493;50.970;10.082;2023-02-13T00:45:56;7.70;;;3.95;;
64188;SDS011;50493;50.970;10.082;2023-02-13T00:48:22;6.97;;;4.00;;
64188;SDS011;50493;50.970;10.082;2023-02-13T00:50:48;8.02;;;4.05;;
64188;SDS011;50493;50.970;10.082;2023-02-13T00:53:13;7.55;;;3.65;;
64188;SDS011;50493;50.970;10.082;2023-02-13T00:55:39;6.88;;;3.67;;
64188;SDS011;50493;50.970;10.082;2023-02-13T00:58:05;9.02;;;3.78;;
64188;SDS011;50493;50.970;10.082;2023-02-13T01:00:31;7.82;;;4.10;;
64188;SDS011;50493;50.970;10.082;2023-02-13T01:02:56;7.13;;;3.30;;
64188;SDS011;50493;50.970;10.082;2023-02-13T01:05:21;8.07;;;3.63;;
64188;SDS011;50493;50.970;10.082;2023-02-13T01:07:47;7.13;;;3.92;;
64188;SDS011;50493;50.970;10.082;2023-02-13T01:10:12;7.07;;;3.50;;
64188;SDS011;50493;50.970;10.082;2023-02-13T01:12:37;6.25;;;3.38;;
64188;SDS011;50493;50.970;10.082;2023-02-13T01:15:04;8.20;;;4.35;;
64188;SDS011;50493;50.970;10.082;2023-02-13T01:17:30;7.03;;;3.60;;
64188;SDS011;50493;50.970;10.082;2023-02-13T01:19:55;6.28;;;3.40;;
64188;SDS011;50493;50.970;10.082;2023-02-13T01:22:21;6.88;;;3.72;;
64188;SDS011;50493;50.970;10.082;2023-02-13T01:24:46;7.10;;;3.83;;
64188;SDS011;50493;50.970;10.082;2023-02-13T01:27:11;7.03;;;3.70;;
64188;SDS011;50493;50.970;10.082;2023-02-13T01:29:37;6.95;;;3.75;;
64188;SDS011;50493;50.970;10.082;2023-02-13T01:32:03;6.72;;;3.80;;
64188;SDS011;50493;50.970;10.082;2023-02-13T01:34:29;6.80;;;3.50;;
64188;SDS011;50493;50.970;10.082;2023-02-13T01:36:55;5.10;;;2.50;;
64188;SDS011;50493;50.970;10.082;2023-02-13T01:39:20;6.93;;;2.70;;
64188;SDS011;50493;50.970;10.082;2023-02-13T01:41:46;7.80;;;3.67;;
64188;SDS011;50493;50.970;10.082;2023-02-13T01:47:14;5.65;;;2.65;;
64188;SDS011;50493;50.970;10.082;2023-02-13T01:49:42;6.45;;;3.20;;
64188;SDS011;50493;50.970;10.082;2023-02-13T01:52:10;6.45;;;3.38;;
64188;SDS011;50493;50.970;10.082;2023-02-13T01:54:36;6.88;;;3.53;;
64188;SDS011;50493;50.970;10.082;2023-02-13T01:57:03;6.28;;;3.60;;
64188;SDS011;50493;50.970;10.082;2023-02-13T01:59:34;7.28;;;3.42;;
64188;SDS011;50493;50.970;10.082;2023-02-13T02:02:04;5.75;;;2.70;;
64188;SDS011;50493;50.970;10.082;2023-02-13T02:04:31;6.65;;;3.38;;
64188;SDS011;50493;50.970;10.082;2023-02-13T02:07:01;5.85;;;3.10;;
64188;SDS011;50493;50.970;10.082;2023-02-13T02:09:29;6.35;;;3.40;;
64188;SDS011;50493;50.970;10.082;2023-02-13T02:11:59;5.97;;;3.10;;
64188;SDS011;50493;50.970;10.082;2023-02-13T02:14:29;7.65;;;3.05;;
64188;SDS011;50493;50.970;10.082;2023-02-13T02:16:55;6.43;;;3.10;;
64188;SDS011;50493;50.970;10.082;2023-02-13T02:19:23;5.90;;;3.10;;
64188;SDS011;50493;50.970;10.082;2023-02-13T02:22:07;6.40;;;3.35;;
64188;SDS011;50493;50.970;10.082;2023-02-13T02:24:58;6.25;;;3.00;;
64188;SDS011;50493;50.970;10.082;2023-02-13T02:27:44;7.00;;;3.40;;
64188;SDS011;50493;50.970;10.082;2023-02-13T02:30:27;5.63;;;2.83;;
64188;SDS011;50493;50.970;10.082;2023-02-13T02:33:18;5.78;;;2.90;;
64188;SDS011;50493;50.970;10.082;2023-02-13T02:35:56;5.63;;;3.00;;
64188;SDS011;50493;50.970;10.082;2023-02-13T02:38:34;6.20;;;3.25;;
64188;SDS011;50493;50.970;10.082;2023-02-13T02:41:10;5.60;;;3.13;;
64188;SDS011;50493;50.970;10.082;2023-02-13T02:44:06;6.55;;;2.90;;
64188;SDS011;50493;50.970;10.082;2023-02-13T02:46:43;6.40;;;3.10;;
64188;SDS011;50493;50.970;10.082;2023-02-13T02:49:40;5.60;;;2.72;;
64188;SDS011;50493;50.970;10.082;2023-02-13T02:52:25;5.93;;;2.80;;
64188;SDS011;50493;50.970;10.082;2023-02-13T02:54:59;7.47;;;2.80;;
64188;SDS011;50493;50.970;10.082;2023-02-13T02:57:34;5.70;;;2.83;;
64188;SDS011;50493;50.970;10.082;2023-02-13T03:00:23;7.65;;;3.15;;
64188;SDS011;50493;50.970;10.082;2023-02-13T03:03:11;5.97;;;2.90;;
64188;SDS011;50493;50.970;10.082;2023-02-13T03:06:01;5.80;;;2.90;;
64188;SDS011;50493;50.970;10.082;2023-02-13T03:08:35;6.32;;;3.20;;
64188;SDS011;50493;50.970;10.082;2023-02-13T03:11:20;5.60;;;2.70;;
64188;SDS011;50493;50.970;10.082;2023-02-13T03:14:04;6.75;;;2.67;;
64188;SDS011;50493;50.970;10.082;2023-02-13T03:16:31;6.40;;;2.92;;
64188;SDS011;50493;50.970;10.082;2023-02-13T03:19:16;6.35;;;3.03;;
64188;SDS011;50493;50.970;10.082;2023-02-13T03:22:12;6.72;;;3.03;;
64188;SDS011;50493;50.970;10.082;2023-02-13T03:24:51;5.55;;;2.78;;
64188;SDS011;50493;50.970;10.082;2023-02-13T03:27:27;6.38;;;3.00;;
64188;SDS011;50493;50.970;10.082;2023-02-13T03:30:19;6.05;;;2.92;;
64188;SDS011;50493;50.970;10.082;2023-02-13T03:32:54;6.70;;;2.88;;
64188;SDS011;50493;50.970;10.082;2023-02-13T03:35:33;5.50;;;3.08;;
64188;SDS011;50493;50.970;10.082;2023-02-13T03:38:21;5.78;;;3.17;;
64188;SDS011;50493;50.970;10.082;2023-02-13T03:40:57;5.47;;;2.80;;
64188;SDS011;50493;50.970;10.082;2023-02-13T03:43:44;5.50;;;2.65;;
64188;SDS011;50493;50.970;10.082;2023-02-13T03:46:17;7.35;;;2.72;;
64188;SDS011;50493;50.970;10.082;2023-02-13T03:48:43;6.63;;;3.20;;
64188;SDS011;50493;50.970;10.082;2023-02-13T03:51:30;6.45;;;2.70;;
64188;SDS011;50493;50.970;10.082;2023-02-13T03:54:03;6.55;;;3.42;;
64188;SDS011;50493;50.970;10.082;2023-02-13T03:56:32;5.95;;;2.85;;
64188;SDS011;50493;50.970;10.082;2023-02-13T03:59:19;7.03;;;2.72;;
64188;SDS011;50493;50.970;10.082;2023-02-13T04:01:50;5.68;;;2.85;;
64188;SDS011;50493;50.970;10.082;2023-02-13T04:04:21;5.45;;;2.72;;
64188;SDS011;50493;50.970;10.082;2023-02-13T04:06:54;5.00;;;2.50;;
64188;SDS011;50493;50.970;10.082;2023-02-13T04:09:25;5.72;;;2.97;;
64188;SDS011;50493;50.970;10.082;2023-02-13T04:11:55;5.43;;;2.60;;
64188;SDS011;50493;50.970;10.082;2023-02-13T04:14:26;6.35;;;2.72;;
64188;SDS011;50493;50.970;10.082;2023-02-13T04:16:58;5.13;;;2.47;;
64188;SDS011;50493;50.970;10.082;2023-02-13T04:19:28;5.32;;;2.53;;
64188;SDS011;50493;50.970;10.082;2023-02-13T04:21:56;6.53;;;2.95;;
64188;SDS011;50493;50.970;10.082;2023-02-13T04:24:25;5.00;;;2.60;;
64188;SDS011;50493;50.970;10.082;2023-02-13T04:26:50;6.93;;;2.50;;
64188;SDS011;50493;50.970;10.082;2023-02-13T04:29:17;4.25;;;2.00;;
64188;SDS011;50493;50.970;10.082;2023-02-13T04:31:43;5.00;;;2.17;;
64188;SDS011;50493;50.970;10.082;2023-02-13T04:34:08;6.63;;;2.30;;
64188;SDS011;50493;50.970;10.082;2023-02-13T04:36:33;5.35;;;2.67;;
64188;SDS011;50493;50.970;10.082;2023-02-13T04:38:59;4.35;;;2.22;;
64188;SDS011;50493;50.970;10.082;2023-02-13T04:41:25;5.47;;;2.45;;
64188;SDS011;50493;50.970;10.082;2023-02-13T04:43:50;5.18;;;2.50;;
64188;SDS011;50493;50.970;10.082;2023-02-13T04:46:16;5.65;;;2.63;;
64188;SDS011;50493;50.970;10.082;2023-02-13T04:48:41;6.32;;;2.58;;
64188;SDS011;50493;50.970;10.082;2023-02-13T04:51:07;4.60;;;1.80;;
64188;SDS011;50493;50.970;10.082;2023-02-13T04:53:32;3.67;;;1.90;;
64188;SDS011;50493;50.970;10.082;2023-02-13T04:55:58;5.60;;;2.67;;
64188;SDS011;50493;50.970;10.082;2023-02-13T04:58:24;6.00;;;2.65;;
64188;SDS011;50493;50.970;10.082;2023-02-13T05:00:50;4.53;;;2.10;;
64188;SDS011;50493;50.970;10.082;2023-02-13T05:03:15;5.28;;;2.22;;
64188;SDS011;50493;50.970;10.082;2023-02-13T05:05:40;3.55;;;1.58;;
64188;SDS011;50493;50.970;10.082;2023-02-13T05:08:06;4.38;;;1.83;;
64188;SDS011;50493;50.970;10.082;2023-02-13T05:10:32;4.47;;;2.00;;
64188;SDS011;50493;50.970;10.082;2023-02-13T05:12:58;4.03;;;1.98;;
64188;SDS011;50493;50.970;10.082;2023-02-13T05:15:24;3.70;;;1.65;;
64188;SDS011;50493;50.970;10.082;2023-02-13T05:17:50;4.57;;;2.45;;
64188;SDS011;50493;50.970;10.082;2023-02-13T05:20:16;3.83;;;1.90;;
64188;SDS011;50493;50.970;10.082;2023-02-13T05:22:45;4.30;;;2.10;;
64188;SDS011;50493;50.970;10.082;2023-02-13T05:25:29;3.88;;;2.08;;
64188;SDS011;50493;50.970;10.082;2023-02-13T05:27:55;5.05;;;2.05;;
64188;SDS011;50493;50.970;10.082;2023-02-13T05:30:20;4.72;;;2.10;;
64188;SDS011;50493;50.970;10.082;2023-02-13T05:32:47;3.63;;;1.83;;
64188;SDS011;50493;50.970;10.082;2023-02-13T05:35:14;4.82;;;2.28;;
64188;SDS011;50493;50.970;10.082;2023-02-13T05:37:40;4.68;;;2.38;;
64188;SDS011;50493;50.970;10.082;2023-02-13T05:40:06;4.72;;;2.17;;
64188;SDS011;50493;50.970;10.082;2023-02-13T05:42:32;5.72;;;3.10;;
64188;SDS011;50493;50.970;10.082;2023-02-13T05:44:58;4.60;;;2.60;;
64188;SDS011;50493;50.970;10.082;2023-02-13T05:47:23;4.10;;;2.25;;
64188;SDS011;50493;50.970;10.082;2023-02-13T05:49:50;5.07;;;2.08;;
64188;SDS011;50493;50.970;10.082;2023-02-13T05:52:15;5.15;;;2.00;;
64188;SDS011;50493;50.970;10.082;2023-02-13T05:54:40;4.18;;;1.92;;
64188;SDS011;50493;50.970;10.082;2023-02-13T05:57:06;4.20;;;2.20;;
64188;SDS011;50493;50.970;10.082;2023-02-13T05:59:31;4.18;;;2.13;;
64188;SDS011;50493;50.970;10.082;2023-02-13T06:01:56;4.65;;;2.25;;
64188;SDS011;50493;50.970;10.082;2023-02-13T06:04:22;4.45;;;1.92;;
64188;SDS011;50493;50.970;10.082;2023-02-13T06:06:48;5.53;;;2.42;;
64188;SDS011;50493;50.970;10.082;2023-02-13T06:09:14;4.07;;;2.10;;
64188;SDS011;50493;50.970;10.082;2023-02-13T06:11:39;4.57;;;2.20;;
64188;SDS011;50493;50.970;10.082;2023-02-13T06:14:04;5.22;;;2.58;;
64188;SDS011;50493;50.970;10.082;2023-02-13T06:16:30;4.90;;;2.20;;
64188;SDS011;50493;50.970;10.082;2023-02-13T06:18:55;4.53;;;2.13;;
64188;SDS011;50493;50.970;10.082;2023-02-13T06:21:21;4.38;;;2.17;;
64188;SDS011;50493;50.970;10.082;2023-02-13T06:23:47;4.68;;;2.22;;
64188;SDS011;50493;50.970;10.082;2023-02-13T06:26:13;5.35;;;2.40;;
64188;SDS011;50493;50.970;10.082;2023-02-13T06:28:38;4.38;;;2.15;;
64188;SDS011;50493;50.970;10.082;2023-02-13T06:31:04;4.75;;;2.33;;
64188;SDS011;50493;50.970;10.082;2023-02-13T06:33:29;5.78;;;2.65;;
64188;SDS011;50493;50.970;10.082;2023-02-13T06:35:54;4.93;;;2.45;;
64188;SDS011;50493;50.970;10.082;2023-02-13T06:38:20;5.60;;;2.42;;
64188;SDS011;50493;50.970;10.082;2023-02-13T06:40:47;5.10;;;2.53;;
64188;SDS011;50493;50.970;10.082;2023-02-13T06:43:13;5.53;;;2.70;;
64188;SDS011;50493;50.970;10.082;2023-02-13T06:45:39;6.00;;;2.63;;
64188;SDS011;50493;50.970;10.082;2023-02-13T06:48:04;6.28;;;2.72;;
64188;SDS011;50493;50.970;10.082;2023-02-13T06:50:30;6.68;;;2.40;;
64188;SDS011;50493;50.970;10.082;2023-02-13T06:52:55;5.82;;;2.70;;
64188;SDS011;50493;50.970;10.082;2023-02-13T06:55:21;6.55;;;2.70;;
64188;SDS011;50493;50.970;10.082;2023-02-13T06:57:48;5.53;;;2.20;;
64188;SDS011;50493;50.970;10.082;2023-02-13T07:00:14;4.72;;;2.33;;
64188;SDS011;50493;50.970;10.082;2023-02-13T07:02:41;5.65;;;2.35;;
64188;SDS011;50493;50.970;10.082;2023-02-13T07:05:08;5.53;;;2.42;;
64188;SDS011;50493;50.970;10.082;2023-02-13T07:07:35;5.78;;;2.25;;
64188;SDS011;50493;50.970;10.082;2023-02-13T07:10:02;5.28;;;2.40;;
64188;SDS011;50493;50.970;10.082;2023-02-13T07:12:30;5.55;;;2.47;;
64188;SDS011;50493;50.970;10.082;2023-02-13T07:14:58;5.72;;;2.55;;
64188;SDS011;50493;50.970;10.082;2023-02-13T07:17:23;4.53;;;2.30;;
64188;SDS011;50493;50.970;10.082;2023-02-13T07:19:48;5.47;;;2.47;;
64188;SDS011;50493;50.970;10.082;2023-02-13T07:22:14;5.53;;;2.50;;
64188;SDS011;50493;50.970;10.082;2023-02-13T07:24:39;5.32;;;2.40;;
64188;SDS011;50493;50.970;10.082;2023-02-13T07:27:04;5.68;;;2.53;;
64188;SDS011;50493;50.970;10.082;2023-02-13T07:29:30;6.53;;;2.97;;
64188;SDS011;50493;50.970;10.082;2023-02-13T07:31:56;5.30;;;2.40;;
64188;SDS011;50493;50.970;10.082;2023-02-13T07:34:22;5.82;;;2.70;;
64188;SDS011;50493;50.970;10.082;2023-02-13T07:36:47;5.90;;;2.70;;
64188;SDS011;50493;50.970;10.082;2023-02-13T07:39:12;7.40;;;3.20;;
64188;SDS011;50493;50.970;10.082;2023-02-13T07:41:38;6.75;;;3.10;;
64188;SDS011;50493;50.970;10.082;2023-02-13T07:44:03;6.38;;;3.10;;
64188;SDS011;50493;50.970;10.082;2023-02-13T07:46:29;5.80;;;2.97;;
64188;SDS011;50493;50.970;10.082;2023-02-13T07:48:56;6.15;;;3.00;;
64188;SDS011;50493;50.970;10.082;2023-02-13T07:51:21;5.95;;;2.90;;
64188;SDS011;50493;50.970;10.082;2023-02-13T07:53:49;8.18;;;3.20;;
64188;SDS011;50493;50.970;10.082;2023-02-13T07:56:14;6.65;;;3.50;;
64188;SDS011;50493;50.970;10.082;2023-02-13T07:58:40;7.10;;;3.30;;
64188;SDS011;50493;50.970;10.082;2023-02-13T08:01:06;6.22;;;3.10;;
64188;SDS011;50493;50.970;10.082;2023-02-13T08:03:32;6.90;;;3.38;;
64188;SDS011;50493;50.970;10.082;2023-02-13T08:05:58;9.55;;;3.70;;
64188;SDS011;50493;50.970;10.082;2023-02-13T08:08:24;5.07;;;2.63;;
64188;SDS011;50493;50.970;10.082;2023-02-13T08:10:49;6.38;;;3.00;;
64188;SDS011;50493;50.970;10.082;2023-02-13T08:13:33;6.93;;;3.30;;
64188;SDS011;50493;50.970;10.082;2023-02-13T08:16:01;7.80;;;3.88;;
64188;SDS011;50493;50.970;10.082;2023-02-13T08:18:27;6.97;;;3.30;;
64188;SDS011;50493;50.970;10.082;2023-02-13T08:20:52;5.70;;;2.80;;
64188;SDS011;50493;50.970;10.082;2023-02-13T08:23:19;10.57;;;3.95;;
64188;SDS011;50493;50.970;10.082;2023-02-13T08:25:45;7.13;;;3.55;;
64188;SDS011;50493;50.970;10.082;2023-02-13T08:28:13;7.78;;;3.58;;
64188;SDS011;50493;50.970;10.082;2023-02-13T08:30:39;5.80;;;3.17;;
64188;SDS011;50493;50.970;10.082;2023-02-13T08:33:05;7.35;;;3.40;;
64188;SDS011;50493;50.970;10.082;2023-02-13T08:35:30;7.68;;;3.75;;
64188;SDS011;50493;50.970;10.082;2023-02-13T08:37:56;8.27;;;3.72;;
64188;SDS011;50493;50.970;10.082;2023-02-13T08:40:27;7.80;;;3.95;;
64188;SDS011;50493;50.970;10.082;2023-02-13T08:42:56;7.38;;;3.72;;
64188;SDS011;50493;50.970;10.082;2023-02-13T08:45:24;7.22;;;3.20;;
64188;SDS011;50493;50.970;10.082;2023-02-13T08:47:50;7.28;;;3.58;;
64188;SDS011;50493;50.970;10.082;2023-02-13T08:50:15;8.20;;;4.25;;
64188;SDS011;50493;50.970;10.082;2023-02-13T08:52:41;7.82;;;4.00;;
64188;SDS011;50493;50.970;10.082;2023-02-13T08:55:06;7.45;;;3.97;;
64188;SDS011;50493;50.970;10.082;2023-02-13T08:57:34;6.68;;;3.30;;
64188;SDS011;50493;50.970;10.082;2023-02-13T08:59:59;8.02;;;4.32;;
64188;SDS011;50493;50.970;10.082;2023-02-13T09:02:24;8.73;;;4.55;;
64188;SDS011;50493;50.970;10.082;2023-02-13T09:04:50;9.63;;;4.53;;
64188;SDS011;50493;50.970;10.082;2023-02-13T09:07:15;9.70;;;5.25;;
64188;SDS011;50493;50.970;10.082;2023-02-13T09:09:40;10.02;;;5.13;;
64188;SDS011;50493;50.970;10.082;2023-02-13T09:12:06;8.38;;;4.30;;
64188;SDS011;50493;50.970;10.082;2023-02-13T09:14:33;10.90;;;5.45;;
64188;SDS011;50493;50.970;10.082;2023-02-13T09:16:58;10.13;;;5.30;;
64188;SDS011;50493;50.970;10.082;2023-02-13T09:19:23;9.02;;;4.70;;
64188;SDS011;50493;50.970;10.082;2023-02-13T09:21:49;10.57;;;5.93;;
64188;SDS011;50493;50.970;10.082;2023-02-13T09:24:14;8.68;;;4.78;;
64188;SDS011;50493;50.970;10.082;2023-02-13T09:26:40;9.98;;;5.55;;
64188;SDS011;50493;50.970;10.082;2023-02-13T09:29:05;9.23;;;4.35;;
64188;SDS011;50493;50.970;10.082;2023-02-13T09:31:32;8.45;;;4.38;;
64188;SDS011;50493;50.970;10.082;2023-02-13T09:33:57;19.65;;;10.05;;
64188;SDS011;50493;50.970;10.082;2023-02-13T09:36:23;11.40;;;5.95;;
64188;SDS011;50493;50.970;10.082;2023-02-13T09:38:50;12.00;;;5.95;;
64188;SDS011;50493;50.970;10.082;2023-02-13T09:41:18;9.50;;;4.95;;
64188;SDS011;50493;50.970;10.082;2023-02-13T09:43:47;8.48;;;4.68;;
64188;SDS011;50493;50.970;10.082;2023-02-13T09:46:16;9.25;;;4.82;;
64188;SDS011;50493;50.970;10.082;2023-02-13T09:48:47;10.10;;;4.60;;
64188;SDS011;50493;50.970;10.082;2023-02-13T09:51:16;10.52;;;5.57;;
64188;SDS011;50493;50.970;10.082;2023-02-13T09:53:45;8.75;;;4.78;;
64188;SDS011;50493;50.970;10.082;2023-02-13T09:56:16;8.77;;;4.90;;
64188;SDS011;50493;50.970;10.082;2023-02-13T09:58:48;9.52;;;4.90;;
64188;SDS011;50493;50.970;10.082;2023-02-13T10:01:22;9.38;;;5.15;;
64188;SDS011;50493;50.970;10.082;2023-02-13T10:03:58;8.95;;;4.55;;
64188;SDS011;50493;50.970;10.082;2023-02-13T10:06:46;8.98;;;4.65;;
64188;SDS011;50493;50.970;10.082;2023-02-13T10:09:20;9.50;;;4.78;;
64188;SDS011;50493;50.970;10.082;2023-02-13T10:11:59;10.65;;;5.93;;
64188;SDS011;50493;50.970;10.082;2023-02-13T10:14:39;9.10;;;4.88;;
64188;SDS011;50493;50.970;10.082;2023-02-13T10:17:12;9.73;;;5.00;;
64188;SDS011;50493;50.970;10.082;2023-02-13T10:19:44;9.10;;;5.18;;
64188;SDS011;50493;50.970;10.082;2023-02-13T10:22:13;8.75;;;4.68;;
64188;SDS011;50493;50.970;10.082;2023-02-13T10:24:42;8.80;;;5.13;;
64188;SDS011;50493;50.970;10.082;2023-02-13T10:27:15;8.45;;;5.18;;
64188;SDS011;50493;50.970;10.082;2023-02-13T10:29:47;8.43;;;4.85;;
64188;SDS011;50493;50.970;10.082;2023-02-13T10:32:45;9.32;;;5.13;;
64188;SDS011;50493;50.970;10.082;2023-02-13T10:35:20;8.60;;;4.85;;
64188;SDS011;50493;50.970;10.082;2023-02-13T10:37:52;8.60;;;5.32;;
64188;SDS011;50493;50.970;10.082;2023-02-13T10:40:19;8.02;;;4.93;;
64188;SDS011;50493;50.970;10.082;2023-02-13T10:42:45;9.90;;;5.50;;
64188;SDS011;50493;50.970;10.082;2023-02-13T10:45:28;7.43;;;5.25;;
64188;SDS011;50493;50.970;10.082;2023-02-13T10:48:11;9.07;;;5.28;;
64188;SDS011;50493;50.970;10.082;2023-02-13T10:50:47;7.85;;;4.97;;
64188;SDS011;50493;50.970;10.082;2023-02-13T10:53:25;9.32;;;6.10;;
64188;SDS011;50493;50.970;10.082;2023-02-13T10:56:06;8.52;;;4.90;;
64188;SDS011;50493;50.970;10.082;2023-02-13T11:01:19;8.63;;;4.82;;
64188;SDS011;50493;50.970;10.082;2023-02-13T11:03:57;7.95;;;5.22;;
64188;SDS011;50493;50.970;10.082;2023-02-13T11:06:29;7.93;;;5.05;;
64188;SDS011;50493;50.970;10.082;2023-02-13T11:08:54;8.80;;;5.65;;
64188;SDS011;50493;50.970;10.082;2023-02-13T11:11:29;9.77;;;5.78;;
64188;SDS011;50493;50.970;10.082;2023-02-13T11:14:06;8.70;;;5.47;;
64188;SDS011;50493;50.970;10.082;2023-02-13T11:16:36;8.77;;;5.43;;
64188;SDS011;50493;50.970;10.082;2023-02-13T11:19:03;8.50;;;5.40;;
64188;SDS011;50493;50.970;10.082;2023-02-13T11:21:32;7.55;;;5.15;;
64188;SDS011;50493;50.970;10.082;2023-02-13T11:23:59;7.60;;;5.13;;
64188;SDS011;50493;50.970;10.082;2023-02-13T11:26:26;7.20;;;4.80;;
64188;SDS011;50493;50.970;10.082;2023-02-13T11:28:55;7.93;;;5.10;;
64188;SDS011;50493;50.970;10.082;2023-02-13T11:31:24;8.48;;;5.40;;
64188;SDS011;50493;50.970;10.082;2023-02-13T11:33:51;8.15;;;5.28;;
64188;SDS011;50493;50.970;10.082;2023-02-13T11:36:21;7.97;;;5.50;;
64188;SDS011;50493;50.970;10.082;2023-02-13T11:38:57;8.20;;;5.60;;
64188;SDS011;50493;50.970;10.082;2023-02-13T11:41:23;7.80;;;5.00;;
64188;SDS011;50493;50.970;10.082;2023-02-13T11:43:52;8.60;;;5.22;;
64188;SDS011;50493;50.970;10.082;2023-02-13T11:46:24;8.27;;;5.13;;
64188;SDS011;50493;50.970;10.082;2023-02-13T11:48:58;7.88;;;5.50;;
64188;SDS011;50493;50.970;10.082;2023-02-13T11:51:33;8.35;;;5.38;;
64188;SDS011;50493;50.970;10.082;2023-02-13T11:54:01;7.80;;;5.28;;
64188;SDS011;50493;50.970;10.082;2023-02-13T11:56:28;8.32;;;5.22;;
64188;SDS011;50493;50.970;10.082;2023-02-13T12:01:37;8.48;;;5.57;;
64188;SDS011;50493;50.970;10.082;2023-02-13T12:04:04;8.73;;;5.60;;
64188;SDS011;50493;50.970;10.082;2023-02-13T12:06:32;8.20;;;5.55;;
64188;SDS011;50493;50.970;10.082;2023-02-13T12:09:07;8.27;;;6.00;;
64188;SDS011;50493;50.970;10.082;2023-02-13T12:11:38;8.80;;;5.10;;
64188;SDS011;50493;50.970;10.082;2023-02-13T12:14:08;7.85;;;5.40;;
64188;SDS011;50493;50.970;10.082;2023-02-13T12:16:39;8.27;;;5.70;;
64188;SDS011;50493;50.970;10.082;2023-02-13T12:19:09;9.63;;;5.88;;
64188;SDS011;50493;50.970;10.082;2023-02-13T12:21:42;8.38;;;5.38;;
64188;SDS011;50493;50.970;10.082;2023-02-13T12:24:24;7.78;;;5.32;;
64188;SDS011;50493;50.970;10.082;2023-02-13T12:27:06;8.93;;;5.95;;
64188;SDS011;50493;50.970;10.082;2023-02-13T12:29:45;7.75;;;5.40;;
64188;SDS011;50493;50.970;10.082;2023-02-13T12:32:25;7.75;;;5.28;;
64188;SDS011;50493;50.970;10.082;2023-02-13T12:35:02;9.50;;;5.47;;
64188;SDS011;50493;50.970;10.082;2023-02-13T12:37:51;8.00;;;5.45;;
64188;SDS011;50493;50.970;10.082;2023-02-13T12:40:25;8.15;;;5.80;;
64188;SDS011;50493;50.970;10.082;2023-02-13T12:43:08;9.02;;;5.20;;
64188;SDS011;50493;50.970;10.082;2023-02-13T12:45:48;8.43;;;6.10;;
64188;SDS011;50493;50.970;10.082;2023-02-13T12:48:24;7.38;;;5.25;;
64188;SDS011;50493;50.970;10.082;2023-02-13T12:51:01;7.90;;;5.57;;
64188;SDS011;50493;50.970;10.082;2023-02-13T12:53:42;10.30;;;5.75;;
64188;SDS011;50493;50.970;10.082;2023-02-13T12:56:30;8.27;;;5.38;;
64188;SDS011;50493;50.970;10.082;2023-02-13T12:59:16;7.65;;;4.95;;
64188;SDS011;50493;50.970;10.082;2023-02-13T13:04:59;8.20;;;5.28;;
64188;SDS011;50493;50.970;10.082;2023-02-13T13:07:46;8.15;;;5.47;;
64188;SDS011;50493;50.970;10.082;2023-02-13T13:10:28;8.63;;;5.40;;
64188;SDS011;50493;50.970;10.082;2023-02-13T13:13:06;7.90;;;5.35;;
64188;SDS011;50493;50.970;10.082;2023-02-13T13:15:39;8.25;;;5.05;;
64188;SDS011;50493;50.970;10.082;2023-02-13T13:18:19;8.70;;;5.10;;
64188;SDS011;50493;50.970;10.082;2023-02-13T13:23:45;8.13;;;5.43;;
64188;SDS011;50493;50.970;10.082;2023-02-13T13:26:20;8.50;;;6.00;;
64188;SDS011;50493;50.970;10.082;2023-02-13T13:28:57;8.00;;;5.32;;
64188;SDS011;50493;50.970;10.082;2023-02-13T13:31:25;8.43;;;5.45;;
64188;SDS011;50493;50.970;10.082;2023-02-13T13:33:52;7.97;;;5.35;;
64188;SDS011;50493;50.970;10.082;2023-02-13T13:36:26;8.70;;;5.57;;
64188;SDS011;50493;50.970;10.082;2023-02-13T13:39:01;8.35;;;5.68;;
64188;SDS011;50493;50.970;10.082;2023-02-13T13:41:36;8.05;;;5.25;;
64188;SDS011;50493;50.970;10.082;2023-02-13T13:44:18;8.57;;;5.70;;
64188;SDS011;50493;50.970;10.082;2023-02-13T13:47:03;8.60;;;5.45;;
64188;SDS011;50493;50.970;10.082;2023-02-13T13:49:39;8.60;;;5.32;;
64188;SDS011;50493;50.970;10.082;2023-02-13T13:52:21;8.27;;;5.30;;
64188;SDS011;50493;50.970;10.082;2023-02-13T13:54:49;8.30;;;5.60;;
64188;SDS011;50493;50.970;10.082;2023-02-13T13:57:17;8.38;;;5.68;;
64188;SDS011;50493;50.970;10.082;2023-02-13T13:59:58;9.77;;;6.22;;
64188;SDS011;50493;50.970;10.082;2023-02-13T14:02:48;8.68;;;5.38;;
64188;SDS011;50493;50.970;10.082;2023-02-13T14:05:19;8.45;;;5.70;;
64188;SDS011;50493;50.970;10.082;2023-02-13T14:07:49;8.25;;;5.78;;
64188;SDS011;50493;50.970;10.082;2023-02-13T14:13:27;8.27;;;5.50;;
64188;SDS011;50493;50.970;10.082;2023-02-13T14:15:56;9.73;;;5.50;;
64188;SDS011;50493;50.970;10.082;2023-02-13T14:18:21;8.38;;;5.75;;
64188;SDS011;50493;50.970;10.082;2023-02-13T14:20:51;9.60;;;5.38;;
64188;SDS011;50493;50.970;10.082;2023-02-13T14:23:29;8.45;;;4.97;;
64188;SDS011;50493;50.970;10.082;2023-02-13T14:26:08;9.30;;;4.90;;
64188;SDS011;50493;50.970;10.082;2023-02-13T14:28:36;8.60;;;5.20;;
64188;SDS011;50493;50.970;10.082;2023-02-13T14:31:05;7.50;;;4.75;;
64188;SDS011;50493;50.970;10.082;2023-02-13T14:33:38;9.40;;;5.85;;
64188;SDS011;50493;50.970;10.082;2023-02-13T14:36:05;7.80;;;5.28;;
64188;SDS011;50493;50.970;10.082;2023-02-13T14:38:33;8.50;;;5.45;;
64188;SDS011;50493;50.970;10.082;2023-02-13T14:40:59;8.85;;;4.70;;
64188;SDS011;50493;50.970;10.082;2023-02-13T14:43:26;7.95;;;5.10;;
64188;SDS011;50493;50.970;10.082;2023-02-13T14:45:55;8.23;;;4.72;;
64188;SDS011;50493;50.970;10.082;2023-02-13T14:48:26;7.47;;;4.97;;
64188;SDS011;50493;50.970;10.082;2023-02-13T14:50:59;7.90;;;4.60;;
64188;SDS011;50493;50.970;10.082;2023-02-13T14:53:26;8.35;;;4.70;;
64188;SDS011;50493;50.970;10.082;2023-02-13T14:55:55;8.93;;;4.72;;
64188;SDS011;50493;50.970;10.082;2023-02-13T14:58:26;9.20;;;4.72;;
64188;SDS011;50493;50.970;10.082;2023-02-13T15:00:56;8.30;;;4.45;;
64188;SDS011;50493;50.970;10.082;2023-02-13T15:03:29;8.52;;;4.72;;
64188;SDS011;50493;50.970;10.082;2023-02-13T15:06:02;8.43;;;4.40;;
64188;SDS011;50493;50.970;10.082;2023-02-13T15:08:31;7.50;;;4.50;;
64188;SDS011;50493;50.970;10.082;2023-02-13T15:10:58;8.60;;;4.75;;